CheckWX is a tool to help pilots better visualize weather data.  It is not intended as a substitute for an official pre-flight weather briefing.

02:37:58 UTC

WADL TAF
Lombok International Airport
Mataram, Indonesia
TAF WADL 040500Z 0406/0506 12010KT 8000 SCT016

Jun-4@
06:00 UTC

Jun-4 @ 06:00 UTC

Jun-5@
06:00 UTC

Jun-5 @ 06:00 UTC

TAF WADL 040500Z 0406/0506 12010KT 8000 SCT016
Wind
  • 120° at 10 KTS
Cloud Levels
  • Scattered at 1,600' AGL